sensor_id;sensor_type;location;lat;lon;timestamp;P1;durP1;ratioP1;P2;durP2;ratioP2
78778;SDS011;68121;52.404;5.318;2023-07-29T00:00:57;1.92;;;1.17;;
78778;SDS011;68121;52.404;5.318;2023-07-29T00:03:23;2.53;;;0.93;;
78778;SDS011;68121;52.404;5.318;2023-07-29T00:05:49;1.23;;;0.90;;
78778;SDS011;68121;52.404;5.318;2023-07-29T00:08:15;3.47;;;1.10;;
78778;SDS011;68121;52.404;5.318;2023-07-29T00:10:41;3.00;;;1.10;;
78778;SDS011;68121;52.404;5.318;2023-07-29T00:13:07;2.72;;;1.08;;
78778;SDS011;68121;52.404;5.318;2023-07-29T00:15:34;1.60;;;1.10;;
78778;SDS011;68121;52.404;5.318;2023-07-29T00:18:00;1.23;;;0.80;;
78778;SDS011;68121;52.404;5.318;2023-07-29T00:20:26;1.33;;;0.80;;
78778;SDS011;68121;52.404;5.318;2023-07-29T00:22:52;1.20;;;0.60;;
78778;SDS011;68121;52.404;5.318;2023-07-29T00:25:20;1.13;;;0.68;;
78778;SDS011;68121;52.404;5.318;2023-07-29T00:27:47;1.50;;;0.80;;
78778;SDS011;68121;52.404;5.318;2023-07-29T00:30:13;2.30;;;0.70;;
78778;SDS011;68121;52.404;5.318;2023-07-29T00:32:39;2.17;;;0.80;;
78778;SDS011;68121;52.404;5.318;2023-07-29T00:35:05;3.85;;;0.77;;
78778;SDS011;68121;52.404;5.318;2023-07-29T00:37:32;1.83;;;0.70;;
78778;SDS011;68121;52.404;5.318;2023-07-29T00:39:58;1.20;;;0.75;;
78778;SDS011;68121;52.404;5.318;2023-07-29T00:42:24;1.48;;;0.60;;
78778;SDS011;68121;52.404;5.318;2023-07-29T00:44:50;3.42;;;0.90;;
78778;SDS011;68121;52.404;5.318;2023-07-29T00:47:17;1.38;;;0.73;;
78778;SDS011;68121;52.404;5.318;2023-07-29T00:49:44;1.30;;;0.65;;
78778;SDS011;68121;52.404;5.318;2023-07-29T00:52:11;1.65;;;0.98;;
78778;SDS011;68121;52.404;5.318;2023-07-29T00:54:40;1.55;;;0.60;;
78778;SDS011;68121;52.404;5.318;2023-07-29T00:57:08;0.80;;;0.60;;
78778;SDS011;68121;52.404;5.318;2023-07-29T00:59:35;0.70;;;0.40;;
78778;SDS011;68121;52.404;5.318;2023-07-29T01:02:02;6.88;;;1.02;;
78778;SDS011;68121;52.404;5.318;2023-07-29T01:04:28;0.88;;;0.60;;
78778;SDS011;68121;52.404;5.318;2023-07-29T01:07:14;4.20;;;0.90;;
78778;SDS011;68121;52.404;5.318;2023-07-29T01:10:00;0.82;;;0.60;;
78778;SDS011;68121;52.404;5.318;2023-07-29T01:12:30;1.42;;;0.47;;
78778;SDS011;68121;52.404;5.318;2023-07-29T01:17:59;2.80;;;1.20;;
78778;SDS011;68121;52.404;5.318;2023-07-29T01:20:31;2.70;;;0.73;;
78778;SDS011;68121;52.404;5.318;2023-07-29T01:22:59;3.15;;;0.82;;
78778;SDS011;68121;52.404;5.318;2023-07-29T01:25:25;1.35;;;0.70;;
78778;SDS011;68121;52.404;5.318;2023-07-29T01:27:52;1.10;;;0.60;;
78778;SDS011;68121;52.404;5.318;2023-07-29T01:30:18;2.45;;;0.68;;
78778;SDS011;68121;52.404;5.318;2023-07-29T01:32:51;2.85;;;0.82;;
78778;SDS011;68121;52.404;5.318;2023-07-29T01:35:22;1.60;;;0.73;;
78778;SDS011;68121;52.404;5.318;2023-07-29T01:37:55;3.33;;;0.95;;
78778;SDS011;68121;52.404;5.318;2023-07-29T01:40:28;2.08;;;0.60;;
78778;SDS011;68121;52.404;5.318;2023-07-29T01:42:54;2.90;;;0.90;;
78778;SDS011;68121;52.404;5.318;2023-07-29T01:45:23;1.40;;;0.77;;
78778;SDS011;68121;52.404;5.318;2023-07-29T01:47:51;3.47;;;0.70;;
78778;SDS011;68121;52.404;5.318;2023-07-29T01:50:17;7.68;;;0.90;;
78778;SDS011;68121;52.404;5.318;2023-07-29T01:52:43;2.90;;;0.82;;
78778;SDS011;68121;52.404;5.318;2023-07-29T01:55:09;1.23;;;0.77;;
78778;SDS011;68121;52.404;5.318;2023-07-29T01:57:35;1.60;;;0.65;;
78778;SDS011;68121;52.404;5.318;2023-07-29T02:00:01;3.55;;;1.00;;
78778;SDS011;68121;52.404;5.318;2023-07-29T02:02:29;1.08;;;0.73;;
78778;SDS011;68121;52.404;5.318;2023-07-29T02:04:55;1.88;;;0.63;;
78778;SDS011;68121;52.404;5.318;2023-07-29T02:07:21;2.00;;;0.77;;
78778;SDS011;68121;52.404;5.318;2023-07-29T02:09:47;2.40;;;0.57;;
78778;SDS011;68121;52.404;5.318;2023-07-29T02:12:13;1.73;;;0.95;;
78778;SDS011;68121;52.404;5.318;2023-07-29T02:14:39;1.42;;;0.90;;
78778;SDS011;68121;52.404;5.318;2023-07-29T02:17:05;1.75;;;1.00;;
78778;SDS011;68121;52.404;5.318;2023-07-29T02:19:31;2.92;;;0.95;;
78778;SDS011;68121;52.404;5.318;2023-07-29T02:21:58;2.28;;;1.23;;
78778;SDS011;68121;52.404;5.318;2023-07-29T02:24:24;3.38;;;0.85;;
78778;SDS011;68121;52.404;5.318;2023-07-29T02:26:50;2.10;;;0.90;;
78778;SDS011;68121;52.404;5.318;2023-07-29T02:29:16;1.65;;;0.88;;
78778;SDS011;68121;52.404;5.318;2023-07-29T02:31:42;1.67;;;1.00;;
78778;SDS011;68121;52.404;5.318;2023-07-29T02:34:09;3.38;;;0.80;;
78778;SDS011;68121;52.404;5.318;2023-07-29T02:36:35;4.40;;;1.60;;
78778;SDS011;68121;52.404;5.318;2023-07-29T02:39:01;2.15;;;1.10;;
78778;SDS011;68121;52.404;5.318;2023-07-29T02:41:27;2.03;;;0.73;;
78778;SDS011;68121;52.404;5.318;2023-07-29T02:43:54;4.22;;;1.55;;
78778;SDS011;68121;52.404;5.318;2023-07-29T02:46:20;4.80;;;1.27;;
78778;SDS011;68121;52.404;5.318;2023-07-29T02:48:46;4.88;;;1.45;;
78778;SDS011;68121;52.404;5.318;2023-07-29T02:51:12;1.48;;;1.00;;
78778;SDS011;68121;52.404;5.318;2023-07-29T02:53:38;5.55;;;1.63;;
78778;SDS011;68121;52.404;5.318;2023-07-29T02:56:04;2.42;;;1.10;;
78778;SDS011;68121;52.404;5.318;2023-07-29T02:58:31;3.78;;;0.98;;
78778;SDS011;68121;52.404;5.318;2023-07-29T03:01:04;4.30;;;1.35;;
78778;SDS011;68121;52.404;5.318;2023-07-29T03:03:30;4.03;;;1.77;;
78778;SDS011;68121;52.404;5.318;2023-07-29T03:06:01;2.92;;;1.38;;
78778;SDS011;68121;52.404;5.318;2023-07-29T03:08:30;2.47;;;1.00;;
78778;SDS011;68121;52.404;5.318;2023-07-29T03:10:56;4.65;;;1.27;;
78778;SDS011;68121;52.404;5.318;2023-07-29T03:13:23;1.63;;;1.10;;
78778;SDS011;68121;52.404;5.318;2023-07-29T03:15:49;4.53;;;1.30;;
78778;SDS011;68121;52.404;5.318;2023-07-29T03:18:15;3.00;;;1.20;;
78778;SDS011;68121;52.404;5.318;2023-07-29T03:20:41;4.07;;;1.30;;
78778;SDS011;68121;52.404;5.318;2023-07-29T03:23:07;1.73;;;1.10;;
78778;SDS011;68121;52.404;5.318;2023-07-29T03:25:33;2.80;;;0.93;;
78778;SDS011;68121;52.404;5.318;2023-07-29T03:27:59;4.82;;;1.45;;
78778;SDS011;68121;52.404;5.318;2023-07-29T03:30:25;4.93;;;1.58;;
78778;SDS011;68121;52.404;5.318;2023-07-29T03:32:52;2.63;;;1.33;;
78778;SDS011;68121;52.404;5.318;2023-07-29T03:35:18;2.90;;;1.50;;
78778;SDS011;68121;52.404;5.318;2023-07-29T03:37:44;3.28;;;1.42;;
78778;SDS011;68121;52.404;5.318;2023-07-29T03:40:11;2.05;;;1.50;;
78778;SDS011;68121;52.404;5.318;2023-07-29T03:42:37;5.43;;;1.48;;
78778;SDS011;68121;52.404;5.318;2023-07-29T03:45:03;2.70;;;1.30;;
78778;SDS011;68121;52.404;5.318;2023-07-29T03:47:30;4.82;;;1.48;;
78778;SDS011;68121;52.404;5.318;2023-07-29T03:49:56;2.92;;;1.55;;
78778;SDS011;68121;52.404;5.318;2023-07-29T03:52:22;3.67;;;1.52;;
78778;SDS011;68121;52.404;5.318;2023-07-29T03:54:48;6.00;;;1.70;;
78778;SDS011;68121;52.404;5.318;2023-07-29T03:57:14;5.22;;;1.52;;
78778;SDS011;68121;52.404;5.318;2023-07-29T03:59:40;3.03;;;1.42;;
78778;SDS011;68121;52.404;5.318;2023-07-29T04:02:06;3.13;;;1.42;;
78778;SDS011;68121;52.404;5.318;2023-07-29T04:04:32;2.47;;;1.75;;
78778;SDS011;68121;52.404;5.318;2023-07-29T04:06:58;5.30;;;1.73;;
78778;SDS011;68121;52.404;5.318;2023-07-29T04:09:25;4.55;;;1.55;;
78778;SDS011;68121;52.404;5.318;2023-07-29T04:11:51;4.45;;;1.60;;
78778;SDS011;68121;52.404;5.318;2023-07-29T04:14:18;2.63;;;1.27;;
78778;SDS011;68121;52.404;5.318;2023-07-29T04:16:44;3.30;;;1.35;;
78778;SDS011;68121;52.404;5.318;2023-07-29T04:19:10;5.70;;;1.65;;
78778;SDS011;68121;52.404;5.318;2023-07-29T04:21:36;3.78;;;1.83;;
78778;SDS011;68121;52.404;5.318;2023-07-29T04:24:03;4.13;;;1.60;;
78778;SDS011;68121;52.404;5.318;2023-07-29T04:26:29;3.45;;;1.60;;
78778;SDS011;68121;52.404;5.318;2023-07-29T04:28:55;3.85;;;2.00;;
78778;SDS011;68121;52.404;5.318;2023-07-29T04:31:21;2.67;;;1.35;;
78778;SDS011;68121;52.404;5.318;2023-07-29T04:33:47;3.17;;;1.35;;
78778;SDS011;68121;52.404;5.318;2023-07-29T04:36:13;8.07;;;1.85;;
78778;SDS011;68121;52.404;5.318;2023-07-29T04:38:39;2.22;;;1.52;;
78778;SDS011;68121;52.404;5.318;2023-07-29T04:41:05;3.85;;;1.48;;
78778;SDS011;68121;52.404;5.318;2023-07-29T04:43:33;3.40;;;1.65;;
78778;SDS011;68121;52.404;5.318;2023-07-29T04:45:59;5.03;;;1.27;;
78778;SDS011;68121;52.404;5.318;2023-07-29T04:48:25;4.00;;;1.55;;
78778;SDS011;68121;52.404;5.318;2023-07-29T04:50:51;2.83;;;1.33;;
78778;SDS011;68121;52.404;5.318;2023-07-29T04:53:17;2.28;;;1.30;;
78778;SDS011;68121;52.404;5.318;2023-07-29T04:55:43;4.47;;;1.60;;
78778;SDS011;68121;52.404;5.318;2023-07-29T04:58:09;3.35;;;1.40;;
78778;SDS011;68121;52.404;5.318;2023-07-29T05:00:36;2.70;;;1.40;;
78778;SDS011;68121;52.404;5.318;2023-07-29T05:03:02;6.40;;;2.30;;
78778;SDS011;68121;52.404;5.318;2023-07-29T05:05:28;3.40;;;1.60;;
78778;SDS011;68121;52.404;5.318;2023-07-29T05:07:54;3.25;;;1.50;;
78778;SDS011;68121;52.404;5.318;2023-07-29T05:10:20;5.15;;;1.45;;
78778;SDS011;68121;52.404;5.318;2023-07-29T05:12:46;5.22;;;2.05;;
78778;SDS011;68121;52.404;5.318;2023-07-29T05:15:12;5.63;;;2.03;;
78778;SDS011;68121;52.404;5.318;2023-07-29T05:17:38;4.75;;;1.42;;
78778;SDS011;68121;52.404;5.318;2023-07-29T05:20:04;4.43;;;1.33;;
78778;SDS011;68121;52.404;5.318;2023-07-29T05:22:31;3.40;;;1.33;;
78778;SDS011;68121;52.404;5.318;2023-07-29T05:24:57;2.90;;;1.50;;
78778;SDS011;68121;52.404;5.318;2023-07-29T05:27:23;3.67;;;1.60;;
78778;SDS011;68121;52.404;5.318;2023-07-29T05:29:49;3.63;;;1.50;;
78778;SDS011;68121;52.404;5.318;2023-07-29T05:32:15;4.05;;;2.22;;
78778;SDS011;68121;52.404;5.318;2023-07-29T05:34:41;4.10;;;1.58;;
78778;SDS011;68121;52.404;5.318;2023-07-29T05:37:07;4.30;;;1.48;;
78778;SDS011;68121;52.404;5.318;2023-07-29T05:39:33;4.70;;;1.83;;
78778;SDS011;68121;52.404;5.318;2023-07-29T05:41:59;4.80;;;1.88;;
78778;SDS011;68121;52.404;5.318;2023-07-29T05:44:28;1.83;;;1.20;;
78778;SDS011;68121;52.404;5.318;2023-07-29T05:46:56;4.68;;;1.73;;
78778;SDS011;68121;52.404;5.318;2023-07-29T05:49:22;4.00;;;1.60;;
78778;SDS011;68121;52.404;5.318;2023-07-29T05:51:48;5.30;;;2.10;;
78778;SDS011;68121;52.404;5.318;2023-07-29T05:54:17;3.28;;;1.50;;
78778;SDS011;68121;52.404;5.318;2023-07-29T05:56:44;5.03;;;1.85;;
78778;SDS011;68121;52.404;5.318;2023-07-29T05:59:10;7.40;;;2.30;;
78778;SDS011;68121;52.404;5.318;2023-07-29T06:01:36;6.22;;;2.25;;
78778;SDS011;68121;52.404;5.318;2023-07-29T06:04:02;2.85;;;1.83;;
78778;SDS011;68121;52.404;5.318;2023-07-29T06:06:28;5.03;;;1.92;;
78778;SDS011;68121;52.404;5.318;2023-07-29T06:08:54;5.78;;;2.33;;
78778;SDS011;68121;52.404;5.318;2023-07-29T06:11:20;4.57;;;2.80;;
78778;SDS011;68121;52.404;5.318;2023-07-29T06:13:47;5.28;;;2.20;;
78778;SDS011;68121;52.404;5.318;2023-07-29T06:16:13;4.22;;;2.15;;
78778;SDS011;68121;52.404;5.318;2023-07-29T06:18:39;6.85;;;2.70;;
78778;SDS011;68121;52.404;5.318;2023-07-29T06:21:05;4.30;;;2.10;;
78778;SDS011;68121;52.404;5.318;2023-07-29T06:23:33;5.78;;;1.92;;
78778;SDS011;68121;52.404;5.318;2023-07-29T06:25:59;4.88;;;2.08;;
78778;SDS011;68121;52.404;5.318;2023-07-29T06:28:26;5.93;;;2.50;;
78778;SDS011;68121;52.404;5.318;2023-07-29T06:30:52;4.45;;;1.77;;
78778;SDS011;68121;52.404;5.318;2023-07-29T06:33:18;7.65;;;2.00;;
78778;SDS011;68121;52.404;5.318;2023-07-29T06:35:44;3.10;;;2.10;;
78778;SDS011;68121;52.404;5.318;2023-07-29T06:38:10;4.45;;;1.80;;
78778;SDS011;68121;52.404;5.318;2023-07-29T06:40:36;5.65;;;1.98;;
78778;SDS011;68121;52.404;5.318;2023-07-29T06:43:02;4.05;;;2.08;;
78778;SDS011;68121;52.404;5.318;2023-07-29T06:45:28;6.80;;;2.10;;
78778;SDS011;68121;52.404;5.318;2023-07-29T06:47:54;7.05;;;2.13;;
78778;SDS011;68121;52.404;5.318;2023-07-29T06:50:21;4.40;;;1.98;;
78778;SDS011;68121;52.404;5.318;2023-07-29T06:52:47;5.28;;;1.98;;
78778;SDS011;68121;52.404;5.318;2023-07-29T06:55:13;5.45;;;2.58;;
78778;SDS011;68121;52.404;5.318;2023-07-29T06:57:39;4.00;;;2.35;;
78778;SDS011;68121;52.404;5.318;2023-07-29T07:00:05;7.07;;;2.60;;
78778;SDS011;68121;52.404;5.318;2023-07-29T07:02:32;3.90;;;2.15;;
78778;SDS011;68121;52.404;5.318;2023-07-29T07:04:58;3.50;;;1.98;;
78778;SDS011;68121;52.404;5.318;2023-07-29T07:07:24;5.50;;;1.80;;
78778;SDS011;68121;52.404;5.318;2023-07-29T07:09:50;4.55;;;1.90;;
78778;SDS011;68121;52.404;5.318;2023-07-29T07:12:16;4.57;;;2.00;;
78778;SDS011;68121;52.404;5.318;2023-07-29T07:14:42;3.50;;;1.75;;
78778;SDS011;68121;52.404;5.318;2023-07-29T07:17:08;5.68;;;3.08;;
78778;SDS011;68121;52.404;5.318;2023-07-29T07:19:34;4.45;;;2.30;;
78778;SDS011;68121;52.404;5.318;2023-07-29T07:22:00;5.80;;;3.00;;
78778;SDS011;68121;52.404;5.318;2023-07-29T07:24:26;4.38;;;2.00;;
78778;SDS011;68121;52.404;5.318;2023-07-29T07:26:52;5.85;;;2.63;;
78778;SDS011;68121;52.404;5.318;2023-07-29T07:29:18;4.13;;;2.47;;
78778;SDS011;68121;52.404;5.318;2023-07-29T07:31:49;2.72;;;1.88;;
78778;SDS011;68121;52.404;5.318;2023-07-29T07:34:20;4.13;;;2.10;;
78778;SDS011;68121;52.404;5.318;2023-07-29T07:36:46;5.43;;;2.00;;
78778;SDS011;68121;52.404;5.318;2023-07-29T07:39:12;6.18;;;2.45;;
78778;SDS011;68121;52.404;5.318;2023-07-29T07:41:40;3.88;;;2.08;;
78778;SDS011;68121;52.404;5.318;2023-07-29T07:44:06;3.08;;;1.83;;
78778;SDS011;68121;52.404;5.318;2023-07-29T07:46:33;5.78;;;2.40;;
78778;SDS011;68121;52.404;5.318;2023-07-29T07:48:59;6.65;;;1.95;;
78778;SDS011;68121;52.404;5.318;2023-07-29T07:51:25;5.30;;;2.03;;
78778;SDS011;68121;52.404;5.318;2023-07-29T07:53:51;6.30;;;1.80;;
78778;SDS011;68121;52.404;5.318;2023-07-29T07:56:17;5.45;;;1.90;;
78778;SDS011;68121;52.404;5.318;2023-07-29T07:58:43;5.05;;;2.05;;
78778;SDS011;68121;52.404;5.318;2023-07-29T08:01:09;4.47;;;1.92;;
78778;SDS011;68121;52.404;5.318;2023-07-29T08:03:36;5.25;;;2.10;;
78778;SDS011;68121;52.404;5.318;2023-07-29T08:06:04;4.32;;;1.95;;
78778;SDS011;68121;52.404;5.318;2023-07-29T08:08:30;2.50;;;1.48;;
78778;SDS011;68121;52.404;5.318;2023-07-29T08:10:56;2.47;;;1.73;;
78778;SDS011;68121;52.404;5.318;2023-07-29T08:13:23;5.18;;;1.50;;
78778;SDS011;68121;52.404;5.318;2023-07-29T08:15:50;5.10;;;2.00;;
78778;SDS011;68121;52.404;5.318;2023-07-29T08:18:17;3.55;;;1.85;;
78778;SDS011;68121;52.404;5.318;2023-07-29T08:20:53;4.32;;;1.75;;
78778;SDS011;68121;52.404;5.318;2023-07-29T08:23:21;3.25;;;1.65;;
78778;SDS011;68121;52.404;5.318;2023-07-29T08:25:51;2.80;;;1.58;;
78778;SDS011;68121;52.404;5.318;2023-07-29T08:28:27;3.60;;;1.80;;
78778;SDS011;68121;52.404;5.318;2023-07-29T08:30:58;4.05;;;1.90;;
78778;SDS011;68121;52.404;5.318;2023-07-29T08:33:24;4.90;;;2.05;;
78778;SDS011;68121;52.404;5.318;2023-07-29T08:35:51;6.55;;;2.10;;
78778;SDS011;68121;52.404;5.318;2023-07-29T08:38:17;3.72;;;1.92;;
78778;SDS011;68121;52.404;5.318;2023-07-29T08:40:54;3.30;;;1.90;;
78778;SDS011;68121;52.404;5.318;2023-07-29T08:43:29;3.22;;;1.50;;
78778;SDS011;68121;52.404;5.318;2023-07-29T08:45:58;4.22;;;2.05;;
78778;SDS011;68121;52.404;5.318;2023-07-29T08:48:43;3.28;;;1.73;;
78778;SDS011;68121;52.404;5.318;2023-07-29T08:51:10;1.77;;;1.52;;
78778;SDS011;68121;52.404;5.318;2023-07-29T08:53:39;2.88;;;1.65;;
78778;SDS011;68121;52.404;5.318;2023-07-29T08:56:06;4.75;;;2.10;;
78778;SDS011;68121;52.404;5.318;2023-07-29T08:58:33;3.05;;;1.40;;
78778;SDS011;68121;52.404;5.318;2023-07-29T09:01:00;2.85;;;1.27;;
78778;SDS011;68121;52.404;5.318;2023-07-29T09:03:26;2.53;;;1.85;;
78778;SDS011;68121;52.404;5.318;2023-07-29T09:05:52;4.10;;;1.10;;
78778;SDS011;68121;52.404;5.318;2023-07-29T09:08:20;5.45;;;1.63;;
78778;SDS011;68121;52.404;5.318;2023-07-29T09:10:47;4.47;;;1.08;;
78778;SDS011;68121;52.404;5.318;2023-07-29T09:13:13;4.00;;;0.93;;
78778;SDS011;68121;52.404;5.318;2023-07-29T09:15:39;1.75;;;0.90;;
78778;SDS011;68121;52.404;5.318;2023-07-29T09:20:39;1.85;;;1.05;;
78778;SDS011;68121;52.404;5.318;2023-07-29T09:23:07;3.65;;;1.05;;
78778;SDS011;68121;52.404;5.318;2023-07-29T09:25:37;4.50;;;1.20;;
78778;SDS011;68121;52.404;5.318;2023-07-29T09:28:08;1.08;;;0.70;;
78778;SDS011;68121;52.404;5.318;2023-07-29T09:30:38;2.60;;;1.00;;
78778;SDS011;68121;52.404;5.318;2023-07-29T09:33:05;1.50;;;0.88;;
78778;SDS011;68121;52.404;5.318;2023-07-29T09:35:35;2.03;;;1.00;;
78778;SDS011;68121;52.404;5.318;2023-07-29T09:38:03;2.60;;;1.52;;
78778;SDS011;68121;52.404;5.318;2023-07-29T09:40:39;4.70;;;1.13;;
78778;SDS011;68121;52.404;5.318;2023-07-29T09:43:06;1.98;;;1.02;;
78778;SDS011;68121;52.404;5.318;2023-07-29T09:45:35;3.90;;;1.33;;
78778;SDS011;68121;52.404;5.318;2023-07-29T09:48:02;5.25;;;1.40;;
78778;SDS011;68121;52.404;5.318;2023-07-29T09:50:30;5.22;;;1.42;;
78778;SDS011;68121;52.404;5.318;2023-07-29T09:52:57;3.55;;;1.45;;
78778;SDS011;68121;52.404;5.318;2023-07-29T09:55:26;5.55;;;1.35;;
78778;SDS011;68121;52.404;5.318;2023-07-29T09:57:53;6.80;;;1.85;;
78778;SDS011;68121;52.404;5.318;2023-07-29T10:00:23;2.88;;;1.10;;
78778;SDS011;68121;52.404;5.318;2023-07-29T10:02:50;7.03;;;1.30;;
78778;SDS011;68121;52.404;5.318;2023-07-29T10:05:17;3.28;;;1.15;;
78778;SDS011;68121;52.404;5.318;2023-07-29T10:07:43;1.92;;;1.15;;
78778;SDS011;68121;52.404;5.318;2023-07-29T10:10:11;4.05;;;1.25;;
78778;SDS011;68121;52.404;5.318;2023-07-29T10:12:39;3.00;;;1.30;;
78778;SDS011;68121;52.404;5.318;2023-07-29T10:15:08;2.65;;;0.98;;
78778;SDS011;68121;52.404;5.318;2023-07-29T10:17:35;3.47;;;1.20;;
78778;SDS011;68121;52.404;5.318;2023-07-29T10:20:07;2.75;;;1.45;;
78778;SDS011;68121;52.404;5.318;2023-07-29T10:22:38;2.35;;;1.15;;
78778;SDS011;68121;52.404;5.318;2023-07-29T10:25:24;3.78;;;1.30;;
78778;SDS011;68121;52.404;5.318;2023-07-29T10:28:04;2.72;;;1.02;;
78778;SDS011;68121;52.404;5.318;2023-07-29T10:30:32;6.05;;;1.38;;
78778;SDS011;68121;52.404;5.318;2023-07-29T10:32:59;2.53;;;1.10;;
78778;SDS011;68121;52.404;5.318;2023-07-29T10:35:27;0.80;;;0.75;;
78778;SDS011;68121;52.404;5.318;2023-07-29T10:37:54;4.05;;;1.42;;
78778;SDS011;68121;52.404;5.318;2023-07-29T10:40:21;2.03;;;1.00;;
78778;SDS011;68121;52.404;5.318;2023-07-29T10:43:06;2.40;;;1.25;;
78778;SDS011;68121;52.404;5.318;2023-07-29T10:45:36;2.25;;;1.10;;
78778;SDS011;68121;52.404;5.318;2023-07-29T10:48:10;3.00;;;0.93;;
78778;SDS011;68121;52.404;5.318;2023-07-29T10:53:58;2.80;;;1.10;;
78778;SDS011;68121;52.404;5.318;2023-07-29T10:56:32;3.63;;;1.15;;
78778;SDS011;68121;52.404;5.318;2023-07-29T10:59:52;2.95;;;1.35;;
78778;SDS011;68121;52.404;5.318;2023-07-29T11:01:59;2.88;;;0.93;;
78778;SDS011;68121;52.404;5.318;2023-07-29T11:04:26;4.93;;;1.17;;
78778;SDS011;68121;52.404;5.318;2023-07-29T11:15:13;4.55;;;1.80;;
78778;SDS011;68121;52.404;5.318;2023-07-29T11:20:11;2.95;;;0.90;;
78778;SDS011;68121;52.404;5.318;2023-07-29T11:22:39;2.47;;;0.90;;
78778;SDS011;68121;52.404;5.318;2023-07-29T11:25:06;3.65;;;1.70;;
78778;SDS011;68121;52.404;5.318;2023-07-29T11:27:36;4.53;;;1.10;;
78778;SDS011;68121;52.404;5.318;2023-07-29T11:30:09;1.33;;;1.17;;
78778;SDS011;68121;52.404;5.318;2023-07-29T11:32:36;2.55;;;1.40;;
78778;SDS011;68121;52.404;5.318;2023-07-29T11:37:30;3.58;;;1.60;;
78778;SDS011;68121;52.404;5.318;2023-07-29T11:39:56;5.13;;;1.50;;
78778;SDS011;68121;52.404;5.318;2023-07-29T11:42:23;4.18;;;1.77;;
78778;SDS011;68121;52.404;5.318;2023-07-29T11:44:49;4.63;;;1.73;;
78778;SDS011;68121;52.404;5.318;2023-07-29T11:47:15;3.20;;;1.63;;
78778;SDS011;68121;52.404;5.318;2023-07-29T11:49:42;2.83;;;1.55;;
78778;SDS011;68121;52.404;5.318;2023-07-29T11:52:08;4.05;;;1.70;;
78778;SDS011;68121;52.404;5.318;2023-07-29T11:54:38;3.67;;;1.80;;
78778;SDS011;68121;52.404;5.318;2023-07-29T11:57:08;3.45;;;1.38;;
78778;SDS011;68121;52.404;5.318;2023-07-29T11:59:35;2.63;;;1.63;;
78778;SDS011;68121;52.404;5.318;2023-07-29T12:02:08;5.30;;;1.92;;
78778;SDS011;68121;52.404;5.318;2023-07-29T12:04:39;4.85;;;1.50;;
78778;SDS011;68121;52.404;5.318;2023-07-29T12:07:06;2.83;;;1.70;;
78778;SDS011;68121;52.404;5.318;2023-07-29T12:09:33;3.88;;;1.70;;
78778;SDS011;68121;52.404;5.318;2023-07-29T12:12:04;3.17;;;1.77;;
78778;SDS011;68121;52.404;5.318;2023-07-29T12:14:31;2.35;;;1.23;;
78778;SDS011;68121;52.404;5.318;2023-07-29T12:17:04;1.85;;;1.42;;
78778;SDS011;68121;52.404;5.318;2023-07-29T12:19:38;3.60;;;1.38;;
78778;SDS011;68121;52.404;5.318;2023-07-29T12:22:06;2.20;;;1.60;;
78778;SDS011;68121;52.404;5.318;2023-07-29T12:24:34;2.70;;;1.30;;
78778;SDS011;68121;52.404;5.318;2023-07-29T12:27:05;2.22;;;1.65;;
78778;SDS011;68121;52.404;5.318;2023-07-29T12:29:39;2.97;;;1.85;;
78778;SDS011;68121;52.404;5.318;2023-07-29T12:34:33;2.88;;;1.70;;
78778;SDS011;68121;52.404;5.318;2023-07-29T12:37:02;3.20;;;1.42;;
78778;SDS011;68121;52.404;5.318;2023-07-29T12:39:30;2.22;;;1.10;;
78778;SDS011;68121;52.404;5.318;2023-07-29T12:41:58;2.05;;;1.10;;
78778;SDS011;68121;52.404;5.318;2023-07-29T12:44:29;4.15;;;2.45;;
78778;SDS011;68121;52.404;5.318;2023-07-29T12:46:57;1.00;;;0.90;;
78778;SDS011;68121;52.404;5.318;2023-07-29T12:49:23;1.50;;;0.93;;
78778;SDS011;68121;52.404;5.318;2023-07-29T12:51:50;1.50;;;0.77;;
78778;SDS011;68121;52.404;5.318;2023-07-29T12:54:16;2.08;;;0.88;;
78778;SDS011;68121;52.404;5.318;2023-07-29T12:56:42;1.67;;;1.00;;
78778;SDS011;68121;52.404;5.318;2023-07-29T12:59:08;0.82;;;0.70;;
78778;SDS011;68121;52.404;5.318;2023-07-29T13:01:34;0.60;;;0.60;;
78778;SDS011;68121;52.404;5.318;2023-07-29T13:04:00;0.95;;;0.70;;
78778;SDS011;68121;52.404;5.318;2023-07-29T13:06:26;1.92;;;0.77;;
78778;SDS011;68121;52.404;5.318;2023-07-29T13:08:52;1.00;;;0.88;;
78778;SDS011;68121;52.404;5.318;2023-07-29T13:11:18;1.13;;;0.80;;
78778;SDS011;68121;52.404;5.318;2023-07-29T13:13:44;2.60;;;0.85;;
78778;SDS011;68121;52.404;5.318;2023-07-29T13:16:11;0.88;;;0.88;;
78778;SDS011;68121;52.404;5.318;2023-07-29T13:18:38;1.95;;;0.90;;
78778;SDS011;68121;52.404;5.318;2023-07-29T13:21:05;1.05;;;0.90;;
78778;SDS011;68121;52.404;5.318;2023-07-29T13:23:31;1.77;;;0.80;;
78778;SDS011;68121;52.404;5.318;2023-07-29T13:25:57;1.70;;;1.00;;
78778;SDS011;68121;52.404;5.318;2023-07-29T13:28:23;3.63;;;0.90;;
78778;SDS011;68121;52.404;5.318;2023-07-29T13:30:49;2.70;;;1.20;;
78778;SDS011;68121;52.404;5.318;2023-07-29T13:33:18;1.80;;;0.80;;
78778;SDS011;68121;52.404;5.318;2023-07-29T13:35:44;2.70;;;1.02;;
78778;SDS011;68121;52.404;5.318;2023-07-29T13:38:10;2.17;;;0.95;;
78778;SDS011;68121;52.404;5.318;2023-07-29T13:40:36;2.47;;;0.90;;
78778;SDS011;68121;52.404;5.318;2023-07-29T13:43:02;1.00;;;0.88;;
78778;SDS011;68121;52.404;5.318;2023-07-29T13:45:28;1.25;;;1.13;;
78778;SDS011;68121;52.404;5.318;2023-07-29T13:47:54;1.90;;;1.13;;
78778;SDS011;68121;52.404;5.318;2023-07-29T13:50:20;2.08;;;0.98;;
78778;SDS011;68121;52.404;5.318;2023-07-29T13:52:46;1.70;;;0.90;;
78778;SDS011;68121;52.404;5.318;2023-07-29T13:55:13;4.10;;;1.60;;
78778;SDS011;68121;52.404;5.318;2023-07-29T13:57:39;2.72;;;1.42;;
78778;SDS011;68121;52.404;5.318;2023-07-29T14:00:06;1.27;;;1.00;;
78778;SDS011;68121;52.404;5.318;2023-07-29T14:02:33;1.10;;;0.85;;
78778;SDS011;68121;52.404;5.318;2023-07-29T14:04:59;2.72;;;1.23;;
78778;SDS011;68121;52.404;5.318;2023-07-29T14:07:25;3.42;;;1.13;;
78778;SDS011;68121;52.404;5.318;2023-07-29T14:09:51;2.05;;;0.93;;
78778;SDS011;68121;52.404;5.318;2023-07-29T14:12:18;3.88;;;0.95;;
78778;SDS011;68121;52.404;5.318;2023-07-29T14:14:44;2.00;;;1.10;;
78778;SDS011;68121;52.404;5.318;2023-07-29T14:17:10;1.15;;;0.90;;
78778;SDS011;68121;52.404;5.318;2023-07-29T14:19:36;2.92;;;0.80;;
78778;SDS011;68121;52.404;5.318;2023-07-29T14:22:03;1.67;;;1.00;;
78778;SDS011;68121;52.404;5.318;2023-07-29T14:24:29;2.65;;;0.82;;
78778;SDS011;68121;52.404;5.318;2023-07-29T14:26:55;1.58;;;0.68;;
78778;SDS011;68121;52.404;5.318;2023-07-29T14:29:21;3.38;;;0.95;;
78778;SDS011;68121;52.404;5.318;2023-07-29T14:31:47;3.40;;;0.98;;
78778;SDS011;68121;52.404;5.318;2023-07-29T14:34:13;2.13;;;1.05;;
78778;SDS011;68121;52.404;5.318;2023-07-29T14:36:39;1.52;;;1.02;;
78778;SDS011;68121;52.404;5.318;2023-07-29T14:39:05;2.50;;;0.90;;
78778;SDS011;68121;52.404;5.318;2023-07-29T14:41:32;1.63;;;0.90;;
78778;SDS011;68121;52.404;5.318;2023-07-29T14:43:58;2.22;;;0.75;;
78778;SDS011;68121;52.404;5.318;2023-07-29T14:46:24;2.25;;;0.85;;
78778;SDS011;68121;52.404;5.318;2023-07-29T14:48:50;2.97;;;1.10;;
78778;SDS011;68121;52.404;5.318;2023-07-29T14:51:16;1.92;;;0.88;;
78778;SDS011;68121;52.404;5.318;2023-07-29T14:53:42;0.90;;;0.60;;
78778;SDS011;68121;52.404;5.318;2023-07-29T14:56:08;0.88;;;0.65;;
78778;SDS011;68121;52.404;5.318;2023-07-29T14:58:34;0.70;;;0.60;;
78778;SDS011;68121;52.404;5.318;2023-07-29T15:01:00;2.38;;;0.90;;
78778;SDS011;68121;52.404;5.318;2023-07-29T15:03:26;2.30;;;0.82;;
78778;SDS011;68121;52.404;5.318;2023-07-29T15:05:53;1.10;;;0.80;;
78778;SDS011;68121;52.404;5.318;2023-07-29T15:08:19;1.95;;;0.73;;
78778;SDS011;68121;52.404;5.318;2023-07-29T15:10:45;2.55;;;1.08;;
78778;SDS011;68121;52.404;5.318;2023-07-29T15:13:15;1.50;;;0.80;;